Time;durP1;ratioP1;P1;durP2;ratioP2;P2;SDS_P1;SDS_P2;PMS_P1;PMS_P2;Temp;Humidity;BMP_temperature;BMP_pressure;BME280_temperature;BME280_humidity;BME280_pressure;Samples;Min_cycle;Max_cycle;Signal;HPM_P1;HPM_P2
2023/08/20 00:00:36;;;;;;;10.45;8.80;;;24.90;99.90;;;;;;5075840;28;20111;-67
2023/08/20 00:03:12;;;;;;;10.35;9.30;;;24.80;99.90;;;;;;5073327;28;20032;-67
2023/08/20 00:05:38;;;;;;;11.00;8.65;;;24.80;99.90;;;;;;5072111;28;20588;-67
2023/08/20 00:08:04;;;;;;;9.43;8.43;;;24.80;99.90;;;;;;5078357;28;20035;-67
2023/08/20 00:10:31;;;;;;;11.65;8.85;;;24.80;99.90;;;;;;5076621;28;20044;-67
2023/08/20 00:12:57;;;;;;;9.50;8.27;;;24.70;99.90;;;;;;5073232;28;20475;-67
2023/08/20 00:15:26;;;;;;;10.80;9.30;;;24.70;99.90;;;;;;5072266;28;20050;-67
2023/08/20 00:17:53;;;;;;;10.85;9.18;;;24.70;99.90;;;;;;5075664;28;20079;-67
2023/08/20 00:20:20;;;;;;;10.43;9.32;;;24.70;99.90;;;;;;5065790;28;20492;-67
2023/08/20 00:22:46;;;;;;;10.10;8.95;;;24.70;99.90;;;;;;5068577;28;20028;-67
2023/08/20 00:25:16;;;;;;;12.55;8.98;;;24.70;99.90;;;;;;5078508;28;20064;-67
2023/08/20 00:27:42;;;;;;;10.10;8.93;;;24.70;99.90;;;;;;5069647;28;20051;-67
2023/08/20 00:30:10;;;;;;;9.48;8.57;;;24.70;99.90;;;;;;5071595;28;20031;-67
2023/08/20 00:32:37;;;;;;;9.25;8.35;;;24.70;99.90;;;;;;5072591;28;20054;-67
2023/08/20 00:35:03;;;;;;;9.98;8.70;;;24.70;99.90;;;;;;5088817;28;20052;-67
2023/08/20 00:37:30;;;;;;;9.80;8.23;;;24.70;99.90;;;;;;5070349;28;20913;-67
2023/08/20 00:39:57;;;;;;;8.93;8.02;;;24.80;99.90;;;;;;5074356;28;20036;-66
2023/08/20 00:42:25;;;;;;;9.63;8.20;;;24.80;99.90;;;;;;5071087;28;20035;-67
2023/08/20 00:44:51;;;;;;;9.65;8.45;;;24.80;99.90;;;;;;5071238;28;20036;-67
2023/08/20 00:47:18;;;;;;;9.80;8.23;;;24.80;99.90;;;;;;5072298;28;21122;-67
2023/08/20 00:49:45;;;;;;;8.93;7.43;;;24.80;99.90;;;;;;5072231;28;20511;-67
2023/08/20 00:52:13;;;;;;;9.73;8.70;;;24.80;99.90;;;;;;5070573;28;20176;-66
2023/08/20 00:54:46;;;;;;;8.35;7.20;;;24.80;99.90;;;;;;5071816;28;20484;-67
2023/08/20 00:57:14;;;;;;;9.27;7.57;;;24.80;99.90;;;;;;5070369;28;20102;-67
2023/08/20 00:59:41;;;;;;;8.65;7.65;;;24.70;99.90;;;;;;5074866;28;20533;-67
2023/08/20 01:02:07;;;;;;;8.52;7.47;;;24.70;99.90;;;;;;5071665;28;20146;-67
2023/08/20 01:04:34;;;;;;;7.93;6.88;;;24.70;99.90;;;;;;5072108;28;20411;-67
2023/08/20 01:07:09;;;;;;;7.88;7.00;;;24.70;99.90;;;;;;5074557;28;20887;-67
2023/08/20 01:09:51;;;;;;;8.70;6.78;;;24.70;99.90;;;;;;5075124;28;20048;-67
2023/08/20 01:12:20;;;;;;;8.38;7.10;;;24.70;99.90;;;;;;5069487;28;20036;-67
2023/08/20 01:14:46;;;;;;;8.13;7.25;;;24.70;99.90;;;;;;5079588;28;20016;-67
2023/08/20 01:17:12;;;;;;;9.93;7.05;;;24.60;99.90;;;;;;5058770;28;20028;-67
2023/08/20 01:19:40;;;;;;;8.43;6.88;;;24.60;99.90;;;;;;5075014;28;20017;-67
2023/08/20 01:22:25;;;;;;;7.32;6.63;;;24.60;99.90;;;;;;5074676;28;20116;-67
2023/08/20 01:25:09;;;;;;;8.15;6.63;;;24.50;99.90;;;;;;5077198;28;20035;-67
2023/08/20 01:28:17;;;;;;;8.80;6.97;;;24.50;99.90;;;;;;5075202;28;20035;-67
2023/08/20 01:30:44;;;;;;;10.45;7.13;;;24.50;99.90;;;;;;5068383;28;20067;-67
2023/08/20 01:33:12;;;;;;;7.50;6.75;;;24.50;99.90;;;;;;5072111;28;20020;-67
2023/08/20 01:35:38;;;;;;;8.73;6.88;;;24.40;99.90;;;;;;5075288;28;20028;-67
2023/08/20 01:38:14;;;;;;;8.32;6.38;;;24.40;99.90;;;;;;5077464;28;20059;-67
2023/08/20 01:40:40;;;;;;;8.48;6.95;;;24.30;99.90;;;;;;5076371;28;20058;-67
2023/08/20 01:43:05;;;;;;;7.05;6.20;;;24.30;99.90;;;;;;5080591;28;20033;-67
2023/08/20 01:45:31;;;;;;;10.10;7.15;;;24.30;99.90;;;;;;5081256;28;20032;-67
2023/08/20 01:47:57;;;;;;;8.40;6.45;;;24.30;99.90;;;;;;5087876;28;20059;-67
2023/08/20 01:50:23;;;;;;;9.65;7.22;;;24.30;99.90;;;;;;5079276;28;20028;-67
2023/08/20 01:52:48;;;;;;;8.85;6.55;;;24.20;99.90;;;;;;5071583;28;20035;-67
2023/08/20 01:55:14;;;;;;;8.48;6.97;;;24.20;99.90;;;;;;5081907;28;20081;-67
2023/08/20 01:57:40;;;;;;;9.25;7.20;;;24.20;99.90;;;;;;5073325;28;20082;-67
2023/08/20 02:00:06;;;;;;;7.20;6.40;;;24.20;99.90;;;;;;5074490;28;20028;-67
2023/08/20 02:02:39;;;;;;;8.43;6.60;;;24.20;99.90;;;;;;5078394;28;20072;-67
2023/08/20 02:05:05;;;;;;;9.65;6.97;;;24.10;99.90;;;;;;5072585;28;20098;-67
2023/08/20 02:07:31;;;;;;;8.00;6.53;;;24.10;99.90;;;;;;5083941;28;20024;-67
2023/08/20 02:09:59;;;;;;;7.25;6.45;;;24.10;99.90;;;;;;5079158;28;20514;-67
2023/08/20 02:12:26;;;;;;;9.85;6.47;;;24.10;99.90;;;;;;5073549;28;20029;-67
2023/08/20 02:14:52;;;;;;;10.20;6.00;;;24.00;99.90;;;;;;5091163;28;20024;-67
2023/08/20 02:17:21;;;;;;;10.02;6.00;;;24.00;99.90;;;;;;5073011;28;20021;-67
2023/08/20 02:19:48;;;;;;;9.85;6.50;;;24.00;99.90;;;;;;5072349;28;20024;-67
2023/08/20 02:22:13;;;;;;;9.32;6.68;;;24.00;99.90;;;;;;5075622;28;20442;-67
2023/08/20 02:24:39;;;;;;;9.82;6.75;;;24.00;99.90;;;;;;5071054;28;20028;-67
2023/08/20 02:27:05;;;;;;;13.27;6.65;;;24.00;99.90;;;;;;5075680;28;20028;-67
2023/08/20 02:29:31;;;;;;;9.27;6.43;;;24.00;99.90;;;;;;5073530;28;20420;-67
2023/08/20 02:31:56;;;;;;;7.38;6.43;;;24.00;99.90;;;;;;5075678;28;20094;-68
2023/08/20 02:34:22;;;;;;;7.45;6.72;;;23.90;99.90;;;;;;5074176;28;20028;-67
2023/08/20 02:36:48;;;;;;;8.30;6.78;;;23.90;99.90;;;;;;5067315;28;20097;-67
2023/08/20 02:39:14;;;;;;;7.82;6.25;;;23.90;99.90;;;;;;5074105;28;20028;-67
2023/08/20 02:41:41;;;;;;;9.75;6.18;;;23.80;99.90;;;;;;5071834;28;20035;-67
2023/08/20 02:44:08;;;;;;;8.98;7.03;;;23.90;99.90;;;;;;5073454;28;20090;-67
2023/08/20 02:46:34;;;;;;;7.95;6.88;;;23.90;99.90;;;;;;5070278;28;20032;-67
2023/08/20 02:49:00;;;;;;;11.43;6.72;;;24.00;99.90;;;;;;5076771;28;20103;-67
2023/08/20 02:51:27;;;;;;;7.22;6.53;;;24.00;99.90;;;;;;5069557;28;20893;-67
2023/08/20 02:53:53;;;;;;;7.95;6.82;;;24.00;99.90;;;;;;5073445;28;20412;-67
2023/08/20 02:56:19;;;;;;;8.35;6.88;;;24.00;99.90;;;;;;5073989;28;20024;-67
2023/08/20 02:58:45;;;;;;;9.13;6.55;;;24.10;99.90;;;;;;5078164;28;20032;-67
2023/08/20 03:01:23;;;;;;;9.93;7.75;;;24.10;99.90;;;;;;5069643;28;20115;-67
2023/08/20 03:03:49;;;;;;;9.88;6.95;;;24.10;99.90;;;;;;5075100;28;20028;-67
2023/08/20 03:06:16;;;;;;;9.13;6.97;;;24.10;99.90;;;;;;5079470;28;20690;-67
2023/08/20 03:08:42;;;;;;;7.60;6.20;;;24.10;99.90;;;;;;5070828;28;20034;-67
2023/08/20 03:11:08;;;;;;;9.13;7.70;;;24.00;99.90;;;;;;5070191;28;20139;-67
2023/08/20 03:13:34;;;;;;;7.88;6.60;;;24.00;99.90;;;;;;5074592;28;20429;-67
2023/08/20 03:16:00;;;;;;;8.73;6.50;;;24.00;99.90;;;;;;5087645;28;20128;-67
2023/08/20 03:18:26;;;;;;;8.95;6.93;;;24.10;99.90;;;;;;5083733;28;20033;-67
2023/08/20 03:20:51;;;;;;;7.85;6.82;;;24.10;99.90;;;;;;5074752;28;20055;-67
2023/08/20 03:23:17;;;;;;;8.27;6.18;;;24.00;99.90;;;;;;5076856;28;20063;-67
2023/08/20 03:25:43;;;;;;;7.90;7.00;;;24.00;99.90;;;;;;5075970;28;20028;-66
2023/08/20 03:28:09;;;;;;;8.27;6.88;;;24.00;99.90;;;;;;5075431;28;20028;-67
2023/08/20 03:30:37;;;;;;;9.82;7.10;;;23.90;99.90;;;;;;5077986;28;20028;-67
2023/08/20 03:33:03;;;;;;;8.52;7.10;;;23.90;99.90;;;;;;5063276;28;20024;-67
2023/08/20 03:35:31;;;;;;;7.60;6.78;;;23.90;99.90;;;;;;5075184;28;20411;-67
2023/08/20 03:37:57;;;;;;;10.57;7.43;;;23.80;99.90;;;;;;5089650;28;20025;-67
2023/08/20 03:40:23;;;;;;;11.50;7.35;;;23.80;99.90;;;;;;5073977;28;20028;-67
2023/08/20 03:42:49;;;;;;;9.50;7.13;;;23.70;99.90;;;;;;5072860;28;20027;-66
2023/08/20 03:45:16;;;;;;;9.57;7.05;;;23.70;99.90;;;;;;5069225;28;20017;-67
2023/08/20 03:47:44;;;;;;;8.10;7.30;;;23.70;99.90;;;;;;5069139;28;20039;-67
2023/08/20 03:50:10;;;;;;;8.68;7.05;;;23.60;99.90;;;;;;5072264;28;20740;-67
2023/08/20 03:52:35;;;;;;;7.60;6.78;;;23.60;99.90;;;;;;5074717;28;20024;-67
2023/08/20 03:55:02;;;;;;;11.43;8.15;;;23.50;99.90;;;;;;5075939;28;20480;-67
2023/08/20 03:57:28;;;;;;;11.23;8.10;;;23.50;99.90;;;;;;5092741;28;20040;-66
2023/08/20 03:59:54;;;;;;;9.73;8.05;;;23.50;99.90;;;;;;5071959;28;20032;-67
2023/08/20 04:02:19;;;;;;;12.50;7.78;;;23.50;99.90;;;;;;5072898;28;20036;-67
2023/08/20 04:04:45;;;;;;;11.82;7.78;;;23.50;99.90;;;;;;5086353;28;20024;-67
2023/08/20 04:07:12;;;;;;;9.85;8.10;;;23.50;99.90;;;;;;5069694;28;20796;-67
2023/08/20 04:09:38;;;;;;;10.70;7.63;;;23.60;99.90;;;;;;5075351;28;20035;-67
2023/08/20 04:12:05;;;;;;;13.27;8.60;;;23.60;99.90;;;;;;5073173;28;20040;-67
2023/08/20 04:14:31;;;;;;;9.18;8.10;;;23.60;99.90;;;;;;5069561;28;20020;-67
2023/08/20 04:16:57;;;;;;;8.48;7.65;;;23.60;99.90;;;;;;5072458;28;20755;-67
2023/08/20 04:19:23;;;;;;;11.40;8.75;;;23.60;99.90;;;;;;5075571;28;20051;-67
2023/08/20 04:21:50;;;;;;;10.48;8.52;;;23.60;99.90;;;;;;5063452;28;20146;-67
2023/08/20 04:24:15;;;;;;;12.68;8.07;;;23.60;99.90;;;;;;5070377;28;20021;-67
2023/08/20 04:26:41;;;;;;;11.73;8.23;;;23.60;99.90;;;;;;5072731;28;20039;-67
2023/08/20 04:29:07;;;;;;;10.23;7.78;;;23.60;99.90;;;;;;5064880;28;20039;-67
2023/08/20 04:31:32;;;;;;;8.73;7.82;;;23.60;99.90;;;;;;5067306;28;20153;-67
2023/08/20 04:34:06;;;;;;;9.52;8.52;;;23.60;99.90;;;;;;5066776;28;20017;-68
2023/08/20 04:36:47;;;;;;;11.23;8.88;;;23.50;99.90;;;;;;5049565;28;20029;-67
2023/08/20 04:39:13;;;;;;;12.65;8.93;;;23.50;99.90;;;;;;5066649;28;20516;-67
2023/08/20 04:41:44;;;;;;;13.02;9.13;;;23.50;99.90;;;;;;5070192;28;20024;-67
2023/08/20 04:44:14;;;;;;;11.50;7.95;;;23.50;99.90;;;;;;5074208;28;21784;-67
2023/08/20 04:46:42;;;;;;;9.10;7.45;;;23.50;99.90;;;;;;5078521;28;20451;-67
2023/08/20 04:49:09;;;;;;;11.43;8.27;;;23.50;99.90;;;;;;5070945;28;20029;-67
2023/08/20 04:51:34;;;;;;;9.32;7.80;;;23.60;99.90;;;;;;5069738;28;20035;-67
2023/08/20 04:54:01;;;;;;;11.70;7.40;;;23.60;99.90;;;;;;5078638;28;20021;-67
2023/08/20 04:56:27;;;;;;;9.68;7.22;;;23.60;99.90;;;;;;5074248;28;20134;-67
2023/08/20 04:58:54;;;;;;;10.68;7.70;;;23.70;99.90;;;;;;5075787;28;20114;-67
2023/08/20 05:01:40;;;;;;;11.45;8.10;;;23.80;99.90;;;;;;5077031;28;20039;-67
2023/08/20 05:04:06;;;;;;;8.65;7.35;;;23.80;99.90;;;;;;5076491;28;20500;-68
2023/08/20 05:06:32;;;;;;;9.85;7.20;;;23.90;99.90;;;;;;5079464;28;20059;-67
2023/08/20 05:08:58;;;;;;;9.35;6.97;;;23.90;99.90;;;;;;5076422;28;20086;-67
2023/08/20 05:11:23;;;;;;;9.18;6.88;;;23.90;99.90;;;;;;5077040;28;20085;-67
2023/08/20 05:13:50;;;;;;;7.25;5.97;;;23.90;99.90;;;;;;5073617;28;20127;-67
2023/08/20 05:16:16;;;;;;;6.47;5.72;;;23.90;99.90;;;;;;5070999;28;20024;-68
2023/08/20 05:18:42;;;;;;;6.05;5.45;;;23.80;99.90;;;;;;5077203;28;20057;-67
2023/08/20 05:21:13;;;;;;;9.52;6.35;;;23.80;99.90;;;;;;5072571;28;20032;-67
2023/08/20 05:23:42;;;;;;;7.68;5.30;;;23.80;99.90;;;;;;5074188;28;20025;-67
2023/08/20 05:26:08;;;;;;;5.63;5.03;;;23.80;99.90;;;;;;5069767;28;20037;-67
2023/08/20 05:28:34;;;;;;;6.72;5.38;;;23.80;99.90;;;;;;5073420;28;20040;-67
2023/08/20 05:31:00;;;;;;;5.85;4.88;;;23.90;99.90;;;;;;5075710;28;20110;-67
2023/08/20 05:33:26;;;;;;;6.13;4.57;;;23.90;99.90;;;;;;5077602;28;20115;-67
2023/08/20 05:35:53;;;;;;;6.38;4.80;;;23.90;99.90;;;;;;5069629;28;20028;-68
2023/08/20 05:38:20;;;;;;;5.90;4.82;;;24.00;99.90;;;;;;5069575;28;20131;-67
2023/08/20 05:40:48;;;;;;;5.47;4.13;;;24.00;99.90;;;;;;5073912;28;20036;-68
2023/08/20 05:43:14;;;;;;;5.55;3.70;;;24.10;99.90;;;;;;5100385;28;20032;-67
2023/08/20 05:45:41;;;;;;;6.55;3.67;;;24.10;99.90;;;;;;5073102;28;20028;-67
2023/08/20 05:48:09;;;;;;;6.57;3.70;;;24.10;99.90;;;;;;5090418;28;20697;-67
2023/08/20 05:50:35;;;;;;;4.57;4.00;;;24.20;99.90;;;;;;5078513;28;20024;-67
2023/08/20 05:53:01;;;;;;;3.30;3.00;;;24.20;99.90;;;;;;5068284;28;20029;-67
2023/08/20 05:55:32;;;;;;;2.70;2.42;;;24.20;99.90;;;;;;5070925;28;20048;-67
2023/08/20 05:57:59;;;;;;;3.47;3.13;;;24.20;99.90;;;;;;5069491;28;20032;-67
2023/08/20 06:00:26;;;;;;;3.17;2.53;;;24.20;99.90;;;;;;5077188;28;20024;-67
2023/08/20 06:02:52;;;;;;;2.88;2.58;;;24.10;99.90;;;;;;5086781;28;20043;-67
2023/08/20 06:05:18;;;;;;;3.22;2.30;;;24.10;99.90;;;;;;5070577;28;20025;-68
2023/08/20 06:07:44;;;;;;;5.07;2.45;;;24.10;99.90;;;;;;5072873;28;20020;-68
2023/08/20 06:10:11;;;;;;;2.47;2.00;;;24.10;99.90;;;;;;5076361;28;20062;-67
2023/08/20 06:12:37;;;;;;;2.33;1.85;;;24.10;99.90;;;;;;5075690;28;20031;-68
2023/08/20 06:15:04;;;;;;;2.63;2.15;;;24.20;99.90;;;;;;5080805;28;20090;-67
2023/08/20 06:17:30;;;;;;;2.92;2.45;;;24.30;99.90;;;;;;5079023;28;20032;-67
2023/08/20 06:19:55;;;;;;;4.22;2.20;;;24.40;99.90;;;;;;5074032;28;20530;-67
2023/08/20 06:22:21;;;;;;;3.33;2.30;;;24.40;99.90;;;;;;5058304;28;20400;-67
2023/08/20 06:24:47;;;;;;;2.83;1.77;;;24.40;99.90;;;;;;5074898;28;20839;-67
2023/08/20 06:27:12;;;;;;;2.45;2.15;;;24.40;99.90;;;;;;5073224;28;20403;-67
2023/08/20 06:29:38;;;;;;;4.18;1.92;;;24.50;99.90;;;;;;5069727;28;20463;-67
2023/08/20 06:32:04;;;;;;;3.42;1.85;;;24.50;99.90;;;;;;5074477;28;20516;-67
2023/08/20 06:34:30;;;;;;;3.95;2.15;;;24.50;99.90;;;;;;5080536;28;20059;-67
2023/08/20 06:36:56;;;;;;;4.13;2.17;;;24.50;99.90;;;;;;5079983;28;20059;-67
2023/08/20 06:39:22;;;;;;;5.20;1.95;;;24.50;99.90;;;;;;5079491;28;20056;-67
2023/08/20 06:41:48;;;;;;;3.08;1.55;;;24.50;99.90;;;;;;5071517;28;20039;-66
2023/08/20 06:44:19;;;;;;;2.88;1.90;;;24.40;99.90;;;;;;5078448;28;20043;-67
2023/08/20 06:46:45;;;;;;;3.03;1.55;;;24.40;99.90;;;;;;5076979;28;20032;-67
2023/08/20 06:49:11;;;;;;;3.70;1.80;;;24.30;99.90;;;;;;5077615;28;20131;-67
2023/08/20 06:51:36;;;;;;;2.25;1.90;;;24.40;99.90;;;;;;5077305;28;20059;-67
2023/08/20 06:54:05;;;;;;;3.35;2.20;;;24.40;99.90;;;;;;5063250;28;20067;-66
2023/08/20 06:56:32;;;;;;;1.98;1.75;;;24.40;99.90;;;;;;5073580;28;20542;-66
2023/08/20 06:58:58;;;;;;;3.28;2.17;;;24.50;99.90;;;;;;5076909;28;20033;-67
2023/08/20 07:01:23;;;;;;;2.00;1.80;;;24.60;99.90;;;;;;5078126;28;20032;-67
2023/08/20 07:03:49;;;;;;;2.28;2.03;;;24.60;99.90;;;;;;5071473;28;20160;-67
2023/08/20 07:06:18;;;;;;;3.47;2.00;;;24.60;99.90;;;;;;5066755;28;20127;-67
2023/08/20 07:08:44;;;;;;;2.53;2.17;;;24.60;99.90;;;;;;5072691;28;20404;-67
2023/08/20 07:11:10;;;;;;;2.40;1.80;;;24.70;99.90;;;;;;5076078;28;20039;-67
2023/08/20 07:13:36;;;;;;;3.08;2.05;;;24.70;99.90;;;;;;5070034;28;20135;-66
2023/08/20 07:16:02;;;;;;;3.42;1.90;;;24.80;99.90;;;;;;5073198;28;20028;-67
2023/08/20 07:18:28;;;;;;;2.38;2.17;;;24.80;99.90;;;;;;5072620;28;20380;-69
2023/08/20 07:20:55;;;;;;;3.05;2.17;;;24.80;99.90;;;;;;5074355;28;20032;-67
2023/08/20 07:23:22;;;;;;;3.60;2.47;;;25.00;99.90;;;;;;5069276;28;20087;-68
2023/08/20 07:25:48;;;;;;;3.67;2.22;;;25.10;99.90;;;;;;5071473;28;20036;-68
2023/08/20 07:28:14;;;;;;;2.92;2.10;;;25.10;99.90;;;;;;5071755;28;20032;-68
2023/08/20 07:30:40;;;;;;;3.53;2.40;;;25.10;99.90;;;;;;5071795;28;20078;-68
2023/08/20 07:33:07;;;;;;;3.10;2.13;;;25.10;99.90;;;;;;5060237;28;20028;-67
2023/08/20 07:35:33;;;;;;;2.65;2.10;;;25.10;99.90;;;;;;5067974;28;20028;-67
2023/08/20 07:37:59;;;;;;;2.35;1.70;;;25.10;99.90;;;;;;5070214;28;20036;-67
2023/08/20 07:40:25;;;;;;;2.88;2.10;;;25.10;99.90;;;;;;5058341;28;20029;-66
2023/08/20 07:42:51;;;;;;;6.25;1.95;;;25.10;99.70;;;;;;5046487;28;20029;-67
2023/08/20 07:45:16;;;;;;;3.53;1.70;;;25.10;99.50;;;;;;5075701;28;20020;-67
2023/08/20 07:47:43;;;;;;;3.72;1.83;;;25.00;99.10;;;;;;5067923;28;20107;-67
2023/08/20 07:50:09;;;;;;;4.85;2.40;;;25.10;99.90;;;;;;5069007;28;20827;-67
2023/08/20 07:52:35;;;;;;;3.63;2.30;;;25.10;99.90;;;;;;5068453;28;20032;-66
2023/08/20 07:55:00;;;;;;;3.40;1.80;;;25.20;99.20;;;;;;5065156;28;20039;-67
2023/08/20 07:57:26;;;;;;;4.07;2.42;;;25.20;99.20;;;;;;5058903;28;20115;-67
2023/08/20 07:59:52;;;;;;;3.65;2.28;;;25.20;99.20;;;;;;5067655;28;20094;-67
2023/08/20 08:02:18;;;;;;;2.95;1.85;;;25.30;99.10;;;;;;5067083;28;20036;-67
2023/08/20 08:04:44;;;;;;;2.35;1.65;;;25.20;98.60;;;;;;5066427;28;20043;-67
2023/08/20 08:07:11;;;;;;;2.67;1.40;;;25.30;98.60;;;;;;5057629;28;20038;-67
2023/08/20 08:09:36;;;;;;;3.13;1.52;;;25.30;98.20;;;;;;5060255;28;20032;-69
2023/08/20 08:12:03;;;;;;;3.05;1.88;;;25.40;98.40;;;;;;5057278;28;20643;-69
2023/08/20 08:14:29;;;;;;;2.53;1.30;;;25.50;98.00;;;;;;5073010;28;20086;-69
2023/08/20 08:16:55;;;;;;;3.17;1.50;;;25.60;97.40;;;;;;5071534;28;20700;-69
2023/08/20 08:19:20;;;;;;;2.22;1.20;;;25.70;96.70;;;;;;5075780;28;20027;-69
2023/08/20 08:21:47;;;;;;;2.70;1.40;;;25.90;96.30;;;;;;5069965;28;20761;-69
2023/08/20 08:24:13;;;;;;;2.45;1.27;;;26.00;95.60;;;;;;5071390;28;20040;-70
2023/08/20 08:26:39;;;;;;;2.00;1.20;;;26.00;95.60;;;;;;5075494;28;20635;-70
2023/08/20 08:29:07;;;;;;;1.45;1.05;;;26.10;95.70;;;;;;5063713;28;20408;-70
2023/08/20 08:31:33;;;;;;;2.47;1.30;;;26.20;95.80;;;;;;5069186;28;20699;-70
2023/08/20 08:33:59;;;;;;;3.15;1.33;;;26.20;94.80;;;;;;5068748;28;20017;-70
2023/08/20 08:36:25;;;;;;;1.70;1.08;;;26.30;95.10;;;;;;5070497;28;20062;-69
2023/08/20 08:38:52;;;;;;;2.10;1.08;;;26.30;95.00;;;;;;5092030;28;20564;-69
2023/08/20 08:41:21;;;;;;;1.95;1.02;;;26.30;95.20;;;;;;5069913;28;20036;-68
2023/08/20 08:43:48;;;;;;;2.17;1.30;;;26.40;94.50;;;;;;5067926;28;20081;-69
2023/08/20 08:46:15;;;;;;;1.75;1.33;;;26.50;94.70;;;;;;5064383;28;20040;-69
2023/08/20 08:48:42;;;;;;;1.90;1.25;;;26.50;95.20;;;;;;5073274;28;20076;-67
2023/08/20 08:51:08;;;;;;;2.22;1.13;;;26.60;95.10;;;;;;5072116;28;20089;-70
2023/08/20 08:53:35;;;;;;;4.53;1.30;;;26.60;93.90;;;;;;5071869;28;20702;-71
2023/08/20 08:56:02;;;;;;;3.10;1.38;;;26.70;93.70;;;;;;5071322;28;20016;-70
2023/08/20 08:58:28;;;;;;;3.58;1.65;;;26.70;94.10;;;;;;5070204;28;20024;-70
2023/08/20 09:00:54;;;;;;;3.45;1.55;;;26.70;93.60;;;;;;5073772;28;20028;-70
2023/08/20 09:03:20;;;;;;;3.30;1.50;;;26.60;93.70;;;;;;5071612;28;20463;-69
2023/08/20 09:06:00;;;;;;;2.40;1.30;;;26.60;93.30;;;;;;5069243;28;20020;-70
2023/08/20 09:08:28;;;;;;;2.83;1.65;;;26.60;93.80;;;;;;5069027;28;20032;-70
2023/08/20 09:10:55;;;;;;;2.53;1.55;;;26.50;93.40;;;;;;5071523;28;20046;-70
2023/08/20 09:13:38;;;;;;;3.90;1.65;;;26.60;93.40;;;;;;5077332;28;20032;-70
2023/08/20 09:16:11;;;;;;;4.15;2.42;;;26.60;92.30;;;;;;5071631;28;20036;-70
2023/08/20 09:18:42;;;;;;;2.65;2.05;;;26.60;93.80;;;;;;5059535;28;20075;-70
2023/08/20 09:21:12;;;;;;;4.57;1.20;;;26.50;93.50;;;;;;5068016;28;20036;-70
2023/08/20 09:23:38;;;;;;;2.60;1.60;;;26.60;93.10;;;;;;5075261;28;20151;-71
2023/08/20 09:26:06;;;;;;;4.78;2.00;;;26.60;93.40;;;;;;5064789;28;20041;-69
2023/08/20 09:28:46;;;;;;;3.72;1.67;;;26.70;94.30;;;;;;5070488;28;20023;-70
2023/08/20 09:31:13;;;;;;;3.50;1.60;;;26.80;93.80;;;;;;5079852;28;20727;-69
2023/08/20 09:33:52;;;;;;;3.72;1.75;;;26.90;93.20;;;;;;5075339;28;20035;-70
2023/08/20 09:36:19;;;;;;;3.28;1.83;;;27.00;93.20;;;;;;5078559;28;20040;-68
2023/08/20 09:38:45;;;;;;;3.75;2.03;;;27.00;92.90;;;;;;5074149;28;20024;-68
2023/08/20 09:41:12;;;;;;;4.68;1.60;;;27.10;93.30;;;;;;5076349;28;20438;-68
2023/08/20 09:43:38;;;;;;;3.17;1.55;;;27.10;93.50;;;;;;5077979;28;20757;-68
2023/08/20 09:46:05;;;;;;;3.13;1.90;;;27.20;93.70;;;;;;5074234;28;20028;-68
2023/08/20 09:48:38;;;;;;;3.90;1.90;;;27.40;92.90;;;;;;5079287;28;20454;-67
2023/08/20 09:51:09;;;;;;;3.25;1.70;;;27.40;93.50;;;;;;5074316;28;20032;-68
2023/08/20 09:53:40;;;;;;;4.85;1.90;;;27.40;93.90;;;;;;5077688;28;20034;-68
2023/08/20 09:56:30;;;;;;;3.38;1.80;;;27.40;93.60;;;;;;5071148;28;20272;-68
2023/08/20 09:58:58;;;;;;;1.90;1.60;;;27.50;93.90;;;;;;5075436;28;20036;-69
2023/08/20 10:01:26;;;;;;;2.22;1.50;;;27.50;93.80;;;;;;5078319;28;20040;-68
2023/08/20 10:03:51;;;;;;;4.40;1.92;;;27.60;94.10;;;;;;5072978;28;20680;-67
2023/08/20 10:06:19;;;;;;;3.38;2.10;;;27.60;94.30;;;;;;5072897;28;20031;-67
2023/08/20 10:08:46;;;;;;;4.47;1.55;;;27.70;93.30;;;;;;5071560;28;20045;-68
2023/08/20 10:11:12;;;;;;;2.78;2.15;;;27.70;93.40;;;;;;5073913;28;20559;-68
2023/08/20 10:13:39;;;;;;;5.00;2.38;;;27.80;93.70;;;;;;5076019;28;20039;-68
2023/08/20 10:16:05;;;;;;;2.97;1.80;;;27.80;93.50;;;;;;5075130;28;20432;-69
2023/08/20 10:18:34;;;;;;;3.13;1.80;;;27.80;94.20;;;;;;5072966;28;20135;-68
2023/08/20 10:21:02;;;;;;;1.83;1.65;;;27.90;92.30;;;;;;5075005;28;20031;-69
2023/08/20 10:23:27;;;;;;;3.58;1.60;;;27.90;93.10;;;;;;5072006;28;20031;-69
2023/08/20 10:25:53;;;;;;;3.80;1.90;;;27.90;92.50;;;;;;5073536;28;20032;-67
2023/08/20 10:28:26;;;;;;;3.22;1.60;;;28.00;92.60;;;;;;5076419;28;20024;-66
2023/08/20 10:31:08;;;;;;;2.03;1.40;;;28.10;91.90;;;;;;5074219;28;20032;-67
2023/08/20 10:33:58;;;;;;;1.85;1.20;;;28.10;92.50;;;;;;5073016;28;20484;-66
2023/08/20 10:36:31;;;;;;;3.08;1.65;;;28.10;92.70;;;;;;5068576;28;20046;-66
2023/08/20 10:38:58;;;;;;;3.80;1.70;;;28.10;91.70;;;;;;5072675;28;20059;-66
2023/08/20 10:41:28;;;;;;;2.78;1.30;;;28.20;91.60;;;;;;5068342;28;20024;-67
2023/08/20 10:44:00;;;;;;;2.17;1.60;;;28.20;90.60;;;;;;5075957;28;20397;-66
2023/08/20 10:46:30;;;;;;;3.30;1.80;;;28.20;91.30;;;;;;5077280;28;20028;-67
2023/08/20 10:48:57;;;;;;;2.33;1.45;;;28.20;89.60;;;;;;5074814;28;20040;-67
2023/08/20 10:51:37;;;;;;;1.88;1.45;;;28.30;90.20;;;;;;5076673;28;20028;-66
2023/08/20 10:54:07;;;;;;;2.00;1.60;;;28.40;90.50;;;;;;5064099;28;20090;-66
2023/08/20 10:56:58;;;;;;;2.97;1.63;;;28.50;89.80;;;;;;5077637;28;20028;-69
2023/08/20 10:59:27;;;;;;;1.92;1.70;;;28.50;87.90;;;;;;5072991;28;20023;-67
2023/08/20 11:01:55;;;;;;;2.50;1.48;;;28.60;89.90;;;;;;5071341;28;20863;-70
2023/08/20 11:04:33;;;;;;;2.85;1.40;;;28.80;87.60;;;;;;5076341;28;20039;-68
2023/08/20 11:07:00;;;;;;;3.20;1.20;;;28.90;87.50;;;;;;5077436;28;20028;-68
2023/08/20 11:09:28;;;;;;;2.08;1.40;;;28.90;85.30;;;;;;5066413;28;20067;-68
2023/08/20 11:11:54;;;;;;;2.35;1.63;;;29.00;86.50;;;;;;5075651;28;20081;-68
2023/08/20 11:14:21;;;;;;;3.40;1.77;;;28.90;87.70;;;;;;5070409;28;20028;-67
2023/08/20 11:16:48;;;;;;;2.40;1.40;;;29.00;85.90;;;;;;5070027;28;20768;-71
2023/08/20 11:19:18;;;;;;;1.77;1.40;;;29.10;85.40;;;;;;5072272;28;20148;-71
2023/08/20 11:21:45;;;;;;;2.65;1.65;;;29.10;86.10;;;;;;5074782;28;20033;-67
2023/08/20 11:24:12;;;;;;;1.77;1.52;;;29.00;86.00;;;;;;5058432;28;20032;-68
2023/08/20 11:26:42;;;;;;;1.73;1.38;;;29.00;85.30;;;;;;5069924;28;20032;-67
2023/08/20 11:29:13;;;;;;;2.63;1.33;;;29.00;86.90;;;;;;5074395;28;20095;-68
2023/08/20 11:31:39;;;;;;;3.63;1.48;;;29.00;84.30;;;;;;5076367;28;20074;-68
2023/08/20 11:34:06;;;;;;;3.05;1.13;;;29.00;84.90;;;;;;5072863;28;20020;-69
2023/08/20 11:36:32;;;;;;;3.58;1.40;;;29.00;83.30;;;;;;5069914;28;20058;-67
2023/08/20 11:38:58;;;;;;;1.80;1.20;;;29.00;82.10;;;;;;5082582;28;20033;-67
2023/08/20 11:41:25;;;;;;;2.33;1.38;;;29.00;80.40;;;;;;5078145;28;20043;-69
2023/08/20 11:43:52;;;;;;;3.33;1.30;;;29.00;80.10;;;;;;5084894;28;20490;-67
2023/08/20 11:46:20;;;;;;;1.52;1.35;;;29.10;82.00;;;;;;5075191;28;20037;-67
2023/08/20 11:48:59;;;;;;;2.78;1.30;;;29.10;83.40;;;;;;5075253;28;20030;-70
2023/08/20 11:51:25;;;;;;;3.42;1.75;;;29.20;81.70;;;;;;5071851;28;20515;-68
2023/08/20 11:53:50;;;;;;;2.55;1.38;;;29.10;82.30;;;;;;5067488;28;20024;-69
2023/08/20 11:56:16;;;;;;;1.88;1.30;;;29.10;81.70;;;;;;5075795;28;20446;-69
2023/08/20 11:58:42;;;;;;;2.58;1.20;;;29.10;80.70;;;;;;5076167;28;20037;-66
2023/08/20 12:01:08;;;;;;;3.95;1.40;;;29.10;82.40;;;;;;5068551;28;20041;-67
2023/08/20 12:03:37;;;;;;;2.03;1.27;;;29.10;82.50;;;;;;5074221;28;20043;-66
2023/08/20 12:06:24;;;;;;;2.92;1.52;;;29.10;80.90;;;;;;5063375;28;20036;-68
2023/08/20 12:08:49;;;;;;;1.50;1.30;;;29.10;81.80;;;;;;5066714;28;20028;-70
2023/08/20 12:11:15;;;;;;;1.75;1.48;;;29.10;82.60;;;;;;5068668;28;20598;-70
2023/08/20 12:13:42;;;;;;;6.28;1.70;;;29.20;83.10;;;;;;5068576;28;20044;-70
2023/08/20 12:16:08;;;;;;;1.73;1.45;;;29.20;80.10;;;;;;5075817;28;20959;-70
2023/08/20 12:18:34;;;;;;;4.40;1.77;;;29.20;80.40;;;;;;5075182;28;20044;-69
2023/08/20 12:21:00;;;;;;;3.17;1.63;;;29.20;82.50;;;;;;5065122;28;20109;-70
2023/08/20 12:23:26;;;;;;;2.45;1.35;;;29.40;83.40;;;;;;5066054;28;20083;-70
2023/08/20 12:25:52;;;;;;;3.10;1.63;;;29.30;79.60;;;;;;5073261;28;20033;-70
2023/08/20 12:28:18;;;;;;;1.98;1.40;;;29.40;79.20;;;;;;5078415;28;20714;-69
2023/08/20 12:30:43;;;;;;;3.05;1.55;;;29.40;81.00;;;;;;5070492;28;20044;-70
2023/08/20 12:33:10;;;;;;;2.20;1.27;;;29.50;79.10;;;;;;5074016;28;20480;-70
2023/08/20 12:35:36;;;;;;;4.80;1.65;;;29.50;80.10;;;;;;5072172;28;20028;-69
2023/08/20 12:38:03;;;;;;;2.50;1.60;;;29.50;79.50;;;;;;5072430;28;20029;-70
2023/08/20 12:40:29;;;;;;;3.55;1.45;;;29.60;77.90;;;;;;5067011;28;20081;-69
2023/08/20 12:42:55;;;;;;;2.40;1.40;;;29.60;78.10;;;;;;5074900;28;20043;-70
2023/08/20 12:45:20;;;;;;;2.20;1.52;;;29.70;79.00;;;;;;5076480;28;20032;-70
2023/08/20 12:47:46;;;;;;;4.13;1.38;;;29.70;79.10;;;;;;5073624;28;20032;-70